createdAt,value
2023-03-29T00:02:20.991Z,1.90
2023-03-29T00:05:26.295Z,1.80
2023-03-29T00:08:32.071Z,1.70
2023-03-29T00:11:36.675Z,1.63
2023-03-29T00:14:41.178Z,2.33
2023-03-29T00:17:46.153Z,2.40
2023-03-29T00:20:58.142Z,2.47
2023-03-29T00:24:02.673Z,2.60
2023-03-29T00:27:07.491Z,1.88
2023-03-29T00:30:12.506Z,2.00
2023-03-29T00:33:21.501Z,2.40
2023-03-29T00:36:26.587Z,2.08
2023-03-29T00:39:31.194Z,2.22
2023-03-29T00:42:36.019Z,1.95
2023-03-29T00:45:42.286Z,2.45
2023-03-29T00:48:47.328Z,2.30
2023-03-29T00:51:52.150Z,2.63
2023-03-29T00:55:02.731Z,1.98
2023-03-29T00:58:12.947Z,2.30
2023-03-29T01:01:26.001Z,2.50
2023-03-29T01:08:03.316Z,2.28
2023-03-29T01:11:37.076Z,2.33
2023-03-29T01:14:48.767Z,2.45
2023-03-29T01:17:55.690Z,2.72
2023-03-29T01:21:14.785Z,2.53
2023-03-29T01:24:41.904Z,2.88
2023-03-29T01:27:53.236Z,3.17
2023-03-29T01:31:08.291Z,2.20
2023-03-29T01:34:16.322Z,2.55
2023-03-29T01:37:27.860Z,2.53
2023-03-29T01:40:33.528Z,1.83
2023-03-29T01:43:48.685Z,2.10
2023-03-29T01:47:08.845Z,2.10
2023-03-29T01:50:36.552Z,2.65
2023-03-29T01:53:48.479Z,2.47
2023-03-29T01:56:53.649Z,2.08
2023-03-29T02:00:00.469Z,2.40
2023-03-29T02:03:09.775Z,3.08
2023-03-29T02:06:18.840Z,2.38
2023-03-29T02:09:23.852Z,2.33
2023-03-29T02:12:28.819Z,1.95
2023-03-29T02:15:33.504Z,2.40
2023-03-29T02:18:44.173Z,2.58
2023-03-29T02:22:08.270Z,2.60
2023-03-29T02:25:13.071Z,2.05
2023-03-29T02:28:17.971Z,2.45
2023-03-29T02:31:35.633Z,2.47
2023-03-29T02:34:49.902Z,2.00
2023-03-29T02:37:57.363Z,2.20
2023-03-29T02:41:02.855Z,2.05
2023-03-29T02:44:14.108Z,2.35
2023-03-29T02:47:24.517Z,1.95
2023-03-29T02:50:35.865Z,2.67
2023-03-29T02:53:49.821Z,2.63
2023-03-29T02:57:00.637Z,2.15
2023-03-29T03:00:09.801Z,2.63
2023-03-29T03:03:15.600Z,1.60
2023-03-29T03:06:22.866Z,3.22
2023-03-29T03:09:28.440Z,2.47
2023-03-29T03:12:32.941Z,2.20
2023-03-29T03:15:42.586Z,2.35
2023-03-29T03:18:48.679Z,2.25
2023-03-29T03:21:53.247Z,2.40
2023-03-29T03:24:59.267Z,2.25
2023-03-29T03:28:04.956Z,2.78
2023-03-29T03:31:10.188Z,2.22
2023-03-29T03:34:53.081Z,2.22
2023-03-29T03:38:01.648Z,2.40
2023-03-29T03:41:07.471Z,1.88
2023-03-29T03:44:13.211Z,2.17
2023-03-29T03:47:18.230Z,2.30
2023-03-29T03:50:23.374Z,2.00
2023-03-29T03:53:28.378Z,2.72
2023-03-29T03:57:02.281Z,2.33
2023-03-29T04:00:20.409Z,2.20
2023-03-29T04:03:37.386Z,2.08
2023-03-29T04:06:43.755Z,2.15
2023-03-29T04:10:09.199Z,2.17
2023-03-29T04:13:25.627Z,2.22
2023-03-29T04:16:48.723Z,2.50
2023-03-29T04:20:13.421Z,2.63
2023-03-29T04:23:19.226Z,2.50
2023-03-29T04:26:24.246Z,2.70
2023-03-29T04:29:34.862Z,2.08
2023-03-29T04:32:51.795Z,2.90
2023-03-29T04:35:57.052Z,2.33
2023-03-29T04:39:01.933Z,2.20
2023-03-29T04:42:07.416Z,2.00
2023-03-29T04:45:17.876Z,2.33
2023-03-29T04:48:48.671Z,2.33
2023-03-29T04:51:54.394Z,2.63
2023-03-29T04:55:04.079Z,1.90
2023-03-29T04:58:32.855Z,2.05
2023-03-29T05:01:39.566Z,2.70
2023-03-29T05:04:44.175Z,2.85
2023-03-29T05:07:52.965Z,3.05
2023-03-29T05:11:02.160Z,2.72
2023-03-29T05:14:08.625Z,2.65
2023-03-29T05:17:13.290Z,2.83
2023-03-29T05:20:18.117Z,2.38
2023-03-29T05:23:25.938Z,3.10
2023-03-29T05:26:51.676Z,2.63
2023-03-29T05:29:56.574Z,2.47
2023-03-29T05:33:16.974Z,2.25
2023-03-29T05:36:22.126Z,2.50
2023-03-29T05:39:28.146Z,3.20
2023-03-29T05:42:33.116Z,2.88
2023-03-29T05:45:45.092Z,2.67
2023-03-29T05:48:49.750Z,3.83
2023-03-29T05:51:57.053Z,3.22
2023-03-29T05:55:04.234Z,3.50
2023-03-29T05:58:10.302Z,2.80
2023-03-29T06:01:15.339Z,2.90
2023-03-29T06:04:31.917Z,3.20
2023-03-29T06:08:03.183Z,2.97
2023-03-29T06:11:26.633Z,2.75
2023-03-29T06:14:58.320Z,3.72
2023-03-29T06:18:10.796Z,3.08
2023-03-29T06:21:16.794Z,2.97
2023-03-29T06:24:21.563Z,3.10
2023-03-29T06:27:32.777Z,3.28
2023-03-29T06:30:38.249Z,3.92
2023-03-29T06:33:43.565Z,3.22
2023-03-29T06:37:08.505Z,3.60
2023-03-29T06:40:13.478Z,3.00
2023-03-29T06:43:22.056Z,2.80
2023-03-29T06:46:43.711Z,3.22
2023-03-29T06:49:48.349Z,3.40
2023-03-29T06:53:11.563Z,3.53
2023-03-29T06:56:17.696Z,2.95
2023-03-29T06:59:33.373Z,3.03
2023-03-29T07:03:06.501Z,3.35
2023-03-29T07:06:12.248Z,3.83
2023-03-29T07:09:20.394Z,3.22
2023-03-29T07:12:46.297Z,3.13
2023-03-29T07:15:53.130Z,3.42
2023-03-29T07:19:17.565Z,4.13
2023-03-29T07:22:33.994Z,3.25
2023-03-29T07:25:39.722Z,3.55
2023-03-29T07:28:44.600Z,3.10
2023-03-29T07:31:49.373Z,4.20
2023-03-29T07:35:27.227Z,3.50
2023-03-29T07:38:32.516Z,3.85
2023-03-29T07:41:41.723Z,3.38
2023-03-29T07:44:50.547Z,3.67
2023-03-29T07:47:57.697Z,3.10
2023-03-29T07:51:06.391Z,3.35
2023-03-29T07:54:22.758Z,3.13
2023-03-29T07:57:49.299Z,3.20
2023-03-29T08:00:55.112Z,3.58
2023-03-29T08:04:19.778Z,3.53
2023-03-29T08:07:50.603Z,3.05
2023-03-29T08:11:09.193Z,3.08
2023-03-29T08:14:31.511Z,2.67
2023-03-29T08:18:02.335Z,3.53
2023-03-29T08:21:07.329Z,2.65
2023-03-29T08:24:11.895Z,3.20
2023-03-29T08:27:23.155Z,2.95
2023-03-29T08:30:27.903Z,3.00
2023-03-29T08:33:34.985Z,3.40
2023-03-29T08:37:05.033Z,3.60
2023-03-29T08:40:21.960Z,3.00
2023-03-29T08:44:11.350Z,3.25
2023-03-29T08:47:37.470Z,3.30
2023-03-29T08:50:53.199Z,3.45
2023-03-29T08:54:25.693Z,3.20
2023-03-29T08:57:51.710Z,3.03
2023-03-29T09:01:09.177Z,3.60
2023-03-29T09:04:28.102Z,3.22
2023-03-29T09:07:40.631Z,3.20
2023-03-29T09:10:54.972Z,2.88
2023-03-29T09:14:24.522Z,3.38
2023-03-29T09:17:39.055Z,3.63
2023-03-29T09:20:53.583Z,2.97
2023-03-29T09:24:37.393Z,3.15
2023-03-29T09:27:58.142Z,3.15
2023-03-29T09:31:39.087Z,3.30
2023-03-29T09:34:49.085Z,3.40
2023-03-29T09:37:57.795Z,3.53
2023-03-29T09:41:08.957Z,3.10
2023-03-29T09:44:30.159Z,3.03
2023-03-29T09:47:46.161Z,2.95
2023-03-29T09:50:52.288Z,2.83
2023-03-29T09:54:00.146Z,3.38
2023-03-29T09:57:43.723Z,3.13
2023-03-29T10:00:51.096Z,2.80
2023-03-29T10:03:56.686Z,2.55
2023-03-29T10:07:01.498Z,3.22
2023-03-29T10:10:10.667Z,2.80
2023-03-29T10:13:35.883Z,2.80
2023-03-29T10:16:47.633Z,3.03
2023-03-29T10:19:57.253Z,2.78
2023-03-29T10:23:01.882Z,3.80
2023-03-29T10:26:16.681Z,2.90
2023-03-29T10:29:23.660Z,2.70
2023-03-29T10:32:33.476Z,3.00
2023-03-29T10:35:41.578Z,2.40
2023-03-29T10:38:46.484Z,3.83
2023-03-29T10:41:52.977Z,3.78
2023-03-29T10:44:59.642Z,3.40
2023-03-29T10:48:06.940Z,3.47
2023-03-29T10:51:14.547Z,3.35
2023-03-29T10:54:23.376Z,3.42
2023-03-29T10:57:37.895Z,3.58
2023-03-29T11:00:51.086Z,3.20
2023-03-29T11:04:36.335Z,3.13
2023-03-29T11:07:57.033Z,3.30
2023-03-29T11:11:13.819Z,3.53
2023-03-29T11:14:45.045Z,3.42
2023-03-29T11:18:01.267Z,2.90
2023-03-29T11:21:31.533Z,3.42
2023-03-29T11:24:53.734Z,3.10
2023-03-29T11:28:07.609Z,3.83
2023-03-29T11:31:30.449Z,4.10
2023-03-29T11:34:59.495Z,3.60
2023-03-29T11:38:32.598Z,3.10
2023-03-29T11:41:45.056Z,4.07
2023-03-29T11:44:54.922Z,3.72
2023-03-29T11:48:05.055Z,3.58
2023-03-29T11:51:26.149Z,2.90
2023-03-29T11:54:48.590Z,4.22
2023-03-29T11:58:01.353Z,3.53
2023-03-29T12:01:35.224Z,4.25
2023-03-29T12:04:47.149Z,4.05
2023-03-29T12:08:03.641Z,2.90
2023-03-29T12:11:27.095Z,2.95
2023-03-29T12:14:52.950Z,4.88
2023-03-29T12:18:07.058Z,3.42
2023-03-29T12:21:19.909Z,4.22
2023-03-29T12:27:37.382Z,4.00
2023-03-29T12:30:51.736Z,3.53
2023-03-29T12:34:17.573Z,3.72
2023-03-29T12:37:51.146Z,3.30
2023-03-29T12:41:37.699Z,3.78
2023-03-29T12:45:01.683Z,3.90
2023-03-29T12:48:18.484Z,4.22
2023-03-29T12:51:30.687Z,3.10
2023-03-29T12:54:35.361Z,3.22
2023-03-29T12:57:44.110Z,3.85
2023-03-29T13:01:05.591Z,3.75
2023-03-29T13:04:20.080Z,4.15
2023-03-29T13:07:27.518Z,3.35
2023-03-29T13:10:42.263Z,3.47
2023-03-29T13:13:50.853Z,3.90
2023-03-29T13:17:15.611Z,3.92
2023-03-29T13:20:52.563Z,3.75
2023-03-29T13:24:29.947Z,3.40
2023-03-29T13:28:04.278Z,3.95
2023-03-29T13:31:23.428Z,3.22
2023-03-29T13:34:42.246Z,3.50
2023-03-29T13:38:08.345Z,3.97
2023-03-29T13:41:44.472Z,3.85
2023-03-29T13:44:49.250Z,3.95
2023-03-29T13:48:21.452Z,3.80
2023-03-29T13:51:58.265Z,3.28
2023-03-29T13:58:33.134Z,3.80
2023-03-29T14:01:48.468Z,3.03
2023-03-29T14:04:53.715Z,4.40
2023-03-29T14:08:08.595Z,3.85
2023-03-29T14:11:44.322Z,3.40
2023-03-29T14:14:58.880Z,3.90
2023-03-29T14:18:04.278Z,3.17
2023-03-29T14:21:12.418Z,3.15
2023-03-29T14:24:21.922Z,3.72
2023-03-29T14:27:31.675Z,3.33
2023-03-29T14:30:36.234Z,3.50
2023-03-29T14:33:41.510Z,4.25
2023-03-29T14:36:54.073Z,3.00
2023-03-29T14:39:59.460Z,3.25
2023-03-29T14:43:07.959Z,3.92
2023-03-29T14:46:17.145Z,3.40
2023-03-29T14:49:23.422Z,4.22
2023-03-29T14:52:29.817Z,3.70
2023-03-29T14:55:36.450Z,4.45
2023-03-29T14:58:46.572Z,4.45
2023-03-29T15:01:51.446Z,3.60
2023-03-29T15:05:04.648Z,3.78
2023-03-29T15:08:16.179Z,3.33
2023-03-29T15:11:26.530Z,3.60
2023-03-29T15:14:37.132Z,3.40
2023-03-29T15:17:51.664Z,3.25
2023-03-29T15:20:57.092Z,3.70
2023-03-29T15:24:04.581Z,3.42
2023-03-29T15:27:18.193Z,3.63
2023-03-29T15:30:34.031Z,3.38
2023-03-29T15:33:41.637Z,3.20
2023-03-29T15:36:46.472Z,3.95
2023-03-29T15:39:51.613Z,4.18
2023-03-29T15:42:56.466Z,3.35
2023-03-29T15:46:01.169Z,4.00
2023-03-29T15:49:06.016Z,4.60
2023-03-29T15:52:10.579Z,4.20
2023-03-29T15:55:15.229Z,4.32
2023-03-29T15:58:24.726Z,3.85
2023-03-29T16:01:35.471Z,3.58
2023-03-29T16:04:40.285Z,4.43
2023-03-29T16:07:45.295Z,4.57
2023-03-29T16:10:49.956Z,4.45
2023-03-29T16:13:55.650Z,5.43
2023-03-29T16:17:01.107Z,4.75
2023-03-29T16:20:07.157Z,4.53
2023-03-29T16:23:12.050Z,3.97
2023-03-29T16:26:17.340Z,4.95
2023-03-29T16:29:22.913Z,5.07
2023-03-29T16:32:27.512Z,4.65
2023-03-29T16:35:35.397Z,4.70
2023-03-29T16:38:40.616Z,4.30
2023-03-29T16:41:48.303Z,4.32
2023-03-29T16:44:54.512Z,4.60
2023-03-29T16:47:59.001Z,5.05
2023-03-29T16:51:03.963Z,5.50
2023-03-29T16:54:09.225Z,5.35
2023-03-29T16:57:13.884Z,6.28
2023-03-29T17:00:20.172Z,5.60
2023-03-29T17:03:24.926Z,5.38
2023-03-29T17:06:31.844Z,6.07
2023-03-29T17:09:36.444Z,7.03
2023-03-29T17:12:40.960Z,5.93
2023-03-29T17:15:45.766Z,5.13
2023-03-29T17:18:50.574Z,5.93
2023-03-29T17:21:55.139Z,5.65
2023-03-29T17:24:59.624Z,5.03
2023-03-29T17:28:04.658Z,5.60
2023-03-29T17:31:09.332Z,5.38
2023-03-29T17:34:15.360Z,5.90
2023-03-29T17:37:23.869Z,5.35
2023-03-29T17:40:28.522Z,7.03
2023-03-29T17:43:33.129Z,5.43
2023-03-29T17:46:38.654Z,5.20
2023-03-29T17:49:43.225Z,5.40
2023-03-29T17:52:49.128Z,5.45
2023-03-29T17:55:53.667Z,7.22
2023-03-29T17:58:58.303Z,5.80
2023-03-29T18:02:05.365Z,6.60
2023-03-29T18:05:10.654Z,6.82
2023-03-29T18:08:16.571Z,6.13
2023-03-29T18:11:22.792Z,7.30
2023-03-29T18:14:27.501Z,6.70
2023-03-29T18:17:32.001Z,7.72
2023-03-29T18:20:36.918Z,9.15
2023-03-29T18:23:44.961Z,7.30
2023-03-29T18:26:49.510Z,8.00
2023-03-29T18:29:55.333Z,7.75
2023-03-29T18:32:59.904Z,7.38
2023-03-29T18:36:10.832Z,7.43
2023-03-29T18:39:17.686Z,7.03
2023-03-29T18:42:22.240Z,8.27
2023-03-29T18:45:26.846Z,7.55
2023-03-29T18:48:33.605Z,8.02
2023-03-29T18:51:38.204Z,7.35
2023-03-29T18:54:42.751Z,6.78
2023-03-29T18:57:47.332Z,8.70
2023-03-29T19:00:51.896Z,8.15
2023-03-29T19:03:57.311Z,7.22
2023-03-29T19:07:02.878Z,7.40
2023-03-29T19:10:08.322Z,7.03
2023-03-29T19:13:13.241Z,8.07
2023-03-29T19:16:17.853Z,7.32
2023-03-29T19:19:23.756Z,10.15
2023-03-29T19:22:28.344Z,6.93
2023-03-29T19:25:33.244Z,7.72
2023-03-29T19:28:37.965Z,7.57
2023-03-29T19:31:42.741Z,7.22
2023-03-29T19:34:47.671Z,7.15
2023-03-29T19:37:52.208Z,7.05
2023-03-29T19:40:57.020Z,7.25
2023-03-29T19:44:02.008Z,7.20
2023-03-29T19:47:06.863Z,8.50
2023-03-29T19:50:12.227Z,7.28
2023-03-29T19:53:16.947Z,5.93
2023-03-29T19:56:23.453Z,7.57
2023-03-29T19:59:28.099Z,9.05
2023-03-29T20:02:32.752Z,6.75
2023-03-29T20:05:38.814Z,8.27
2023-03-29T20:08:44.344Z,7.07
2023-03-29T20:11:49.178Z,7.28
2023-03-29T20:14:53.789Z,7.15
2023-03-29T20:18:00.255Z,6.60
2023-03-29T20:21:06.331Z,6.07
2023-03-29T20:24:11.248Z,7.90
2023-03-29T20:27:15.838Z,6.88
2023-03-29T20:30:20.483Z,6.82
2023-03-29T20:33:25.329Z,7.38
2023-03-29T20:36:30.598Z,7.00
2023-03-29T20:39:35.607Z,7.57
2023-03-29T20:42:40.449Z,7.03
2023-03-29T20:45:53.514Z,6.45
2023-03-29T20:49:04.776Z,6.90
2023-03-29T20:52:15.285Z,7.00
2023-03-29T20:55:22.236Z,7.32
2023-03-29T20:58:27.992Z,6.43
2023-03-29T21:01:35.058Z,6.72
2023-03-29T21:04:39.655Z,7.55
2023-03-29T21:07:44.966Z,7.45
2023-03-29T21:10:49.511Z,6.93
2023-03-29T21:13:54.051Z,7.40
2023-03-29T21:16:58.971Z,8.13
2023-03-29T21:20:08.240Z,7.70
2023-03-29T21:23:13.306Z,7.88
2023-03-29T21:26:17.920Z,7.47
2023-03-29T21:29:22.646Z,6.50
2023-03-29T21:32:27.236Z,7.22
2023-03-29T21:35:33.343Z,7.10
2023-03-29T21:38:37.939Z,7.07
2023-03-29T21:41:42.509Z,9.15
2023-03-29T21:44:47.126Z,8.27
2023-03-29T21:47:52.071Z,7.75
2023-03-29T21:50:56.749Z,8.90
2023-03-29T21:54:01.438Z,8.63
2023-03-29T21:57:06.267Z,9.60
2023-03-29T22:00:12.803Z,7.35
2023-03-29T22:03:17.487Z,7.40
2023-03-29T22:06:22.238Z,7.57
2023-03-29T22:09:26.885Z,9.20
2023-03-29T22:12:34.365Z,7.95
2023-03-29T22:15:39.166Z,8.05
2023-03-29T22:18:46.746Z,8.75
2023-03-29T22:21:51.479Z,9.30
2023-03-29T22:24:56.093Z,8.00
2023-03-29T22:28:00.691Z,8.15
2023-03-29T22:31:08.212Z,8.38
2023-03-29T22:34:12.761Z,8.80
2023-03-29T22:37:17.909Z,8.68
2023-03-29T22:40:22.504Z,10.57
2023-03-29T22:43:27.119Z,9.25
2023-03-29T22:46:31.873Z,8.32
2023-03-29T22:49:36.682Z,7.18
2023-03-29T22:52:41.237Z,8.00
2023-03-29T22:55:46.249Z,8.23
2023-03-29T22:58:51.045Z,7.95
2023-03-29T23:01:55.638Z,8.20
2023-03-29T23:05:00.671Z,8.18
2023-03-29T23:08:06.828Z,8.35
2023-03-29T23:11:11.501Z,10.23
2023-03-29T23:14:16.043Z,8.52
2023-03-29T23:17:20.758Z,8.55
2023-03-29T23:20:25.448Z,8.25
2023-03-29T23:23:30.228Z,8.98
2023-03-29T23:26:35.659Z,8.48
2023-03-29T23:29:40.228Z,9.25
2023-03-29T23:32:44.858Z,10.95
2023-03-29T23:35:49.467Z,10.43
2023-03-29T23:38:54.049Z,10.18
2023-03-29T23:41:58.850Z,10.15
2023-03-29T23:45:03.526Z,10.77
2023-03-29T23:48:08.629Z,10.55
2023-03-29T23:51:13.189Z,10.98
2023-03-29T23:54:17.678Z,10.10
2023-03-29T23:57:22.318Z,10.70
